createdAt,value
2017-11-25T00:02:15.443Z,27.17
2017-11-25T00:04:43.092Z,29.60
2017-11-25T00:07:10.714Z,30.07
2017-11-25T00:09:38.333Z,29.47
2017-11-25T00:12:06.000Z,30.37
2017-11-25T00:14:33.629Z,31.70
2017-11-25T00:17:01.285Z,32.65
2017-11-25T00:19:28.900Z,32.30
2017-11-25T00:21:57.551Z,35.50
2017-11-25T00:24:25.211Z,33.80
2017-11-25T00:26:52.832Z,32.97
2017-11-25T00:29:20.839Z,33.40
2017-11-25T00:31:48.481Z,41.67
2017-11-25T00:34:16.162Z,31.83
2017-11-25T00:36:43.850Z,33.95
2017-11-25T00:39:12.231Z,31.30
2017-11-25T00:41:40.660Z,33.33
2017-11-25T00:44:08.327Z,32.57
2017-11-25T00:46:35.982Z,33.92
2017-11-25T00:49:03.603Z,35.73
2017-11-25T00:51:32.033Z,36.55
2017-11-25T00:53:59.683Z,33.40
2017-11-25T00:56:27.353Z,32.60
2017-11-25T00:58:55.009Z,33.40
2017-11-25T01:01:22.675Z,33.13
2017-11-25T01:03:50.334Z,34.20
2017-11-25T01:06:17.958Z,33.83
2017-11-25T01:08:45.615Z,33.70
2017-11-25T01:11:13.226Z,34.97
2017-11-25T01:13:40.879Z,34.33
2017-11-25T01:16:08.493Z,35.20
2017-11-25T01:18:36.153Z,32.50
2017-11-25T01:21:03.830Z,35.30
2017-11-25T01:23:31.443Z,32.27
2017-11-25T01:25:59.070Z,34.43
2017-11-25T01:28:26.731Z,34.73
2017-11-25T01:30:54.347Z,36.93
2017-11-25T01:33:22.140Z,35.37
2017-11-25T01:35:50.019Z,36.30
2017-11-25T01:38:17.667Z,34.07
2017-11-25T01:40:45.291Z,36.15
2017-11-25T01:43:12.943Z,37.50
2017-11-25T01:45:40.627Z,35.63
2017-11-25T01:48:08.305Z,35.78
2017-11-25T01:50:36.173Z,35.57
2017-11-25T01:53:03.859Z,37.27
2017-11-25T01:55:31.547Z,36.03
2017-11-25T01:57:59.447Z,35.97
2017-11-25T02:00:27.080Z,35.30
2017-11-25T02:02:54.695Z,37.08
2017-11-25T02:05:22.358Z,37.15
2017-11-25T02:07:50.206Z,34.10
2017-11-25T02:10:19.414Z,33.75
2017-11-25T02:12:47.053Z,34.93
2017-11-25T02:15:14.947Z,33.87
2017-11-25T02:17:42.711Z,33.60
2017-11-25T02:20:10.563Z,34.63
2017-11-25T02:22:38.283Z,32.00
2017-11-25T02:25:05.953Z,34.30
2017-11-25T02:27:33.760Z,33.53
2017-11-25T02:30:01.609Z,32.28
2017-11-25T02:32:29.322Z,33.83
2017-11-25T02:34:57.779Z,32.10
2017-11-25T02:37:25.454Z,33.42
2017-11-25T02:39:54.117Z,33.22
2017-11-25T02:42:21.876Z,33.97
2017-11-25T02:44:49.721Z,34.83
2017-11-25T02:47:17.401Z,35.28
2017-11-25T02:49:45.087Z,33.73
2017-11-25T02:52:12.791Z,33.30
2017-11-25T02:54:40.452Z,34.45
2017-11-25T02:57:08.167Z,34.13
2017-11-25T02:59:36.608Z,35.90
2017-11-25T03:02:04.303Z,35.33
2017-11-25T03:04:31.927Z,34.83
2017-11-25T03:06:59.577Z,35.53
2017-11-25T03:09:27.262Z,34.13
2017-11-25T03:11:54.920Z,35.53
2017-11-25T03:14:22.629Z,34.47
2017-11-25T03:16:50.263Z,33.63
2017-11-25T03:19:17.884Z,32.50
2017-11-25T03:21:45.562Z,34.30
2017-11-25T03:24:13.247Z,32.40
2017-11-25T03:26:40.871Z,33.73
2017-11-25T03:29:08.512Z,30.77
2017-11-25T03:31:36.463Z,34.50
2017-11-25T03:34:04.151Z,32.67
2017-11-25T03:36:31.762Z,34.83
2017-11-25T03:39:00.139Z,32.37
2017-11-25T03:41:28.570Z,33.05
2017-11-25T03:43:56.235Z,36.90
2017-11-25T03:46:23.890Z,34.10
2017-11-25T03:48:51.535Z,34.88
2017-11-25T03:51:19.195Z,34.80
2017-11-25T03:53:46.843Z,35.60
2017-11-25T03:56:15.190Z,39.15
2017-11-25T03:58:42.840Z,34.53
2017-11-25T04:01:10.585Z,35.40
2017-11-25T04:03:38.290Z,32.13
2017-11-25T04:06:05.927Z,37.83
2017-11-25T04:08:34.363Z,39.90
2017-11-25T04:11:01.995Z,34.40
2017-11-25T04:13:29.669Z,31.90
2017-11-25T04:15:57.332Z,35.37
2017-11-25T04:18:24.991Z,33.00
2017-11-25T04:20:52.673Z,33.73
2017-11-25T04:23:20.298Z,34.60
2017-11-25T04:25:47.923Z,33.57
2017-11-25T04:28:15.595Z,48.73
2017-11-25T04:30:44.042Z,35.23
2017-11-25T04:33:11.667Z,38.88
2017-11-25T04:35:39.342Z,36.90
2017-11-25T04:38:07.327Z,51.72
2017-11-25T04:40:34.970Z,42.10
2017-11-25T04:43:02.648Z,40.83
2017-11-25T04:45:30.407Z,40.38
2017-11-25T04:47:58.051Z,32.65
2017-11-25T04:50:25.721Z,34.47
2017-11-25T04:52:53.360Z,33.42
2017-11-25T04:55:21.148Z,36.63
2017-11-25T04:57:48.831Z,44.03
2017-11-25T05:00:17.983Z,38.03
2017-11-25T05:02:45.711Z,32.72
2017-11-25T05:05:13.368Z,32.00
2017-11-25T05:07:41.815Z,28.50
2017-11-25T05:10:09.444Z,30.73
2017-11-25T05:12:37.273Z,28.10
2017-11-25T05:15:05.748Z,27.37
2017-11-25T05:17:33.693Z,26.33
2017-11-25T05:20:01.364Z,28.57
2017-11-25T05:22:29.067Z,26.77
2017-11-25T05:24:56.767Z,25.67
2017-11-25T05:27:24.411Z,29.20
2017-11-25T05:29:52.026Z,28.13
2017-11-25T05:32:20.487Z,25.93
2017-11-25T05:34:48.104Z,28.10
2017-11-25T05:37:15.723Z,25.93
2017-11-25T05:39:43.390Z,27.50
2017-11-25T05:42:11.100Z,25.00
2017-11-25T05:44:38.707Z,25.20
2017-11-25T05:47:06.674Z,24.60
2017-11-25T05:49:34.369Z,22.87
2017-11-25T05:52:02.769Z,26.43
2017-11-25T05:54:30.624Z,27.60
2017-11-25T05:56:58.312Z,23.83
2017-11-25T05:59:25.947Z,26.70
2017-11-25T06:01:53.598Z,27.85
2017-11-25T06:04:21.267Z,25.30
2017-11-25T06:06:49.037Z,24.60
2017-11-25T06:09:16.651Z,27.00
2017-11-25T06:11:44.479Z,25.03
2017-11-25T06:14:12.130Z,28.60
2017-11-25T06:16:39.800Z,28.47
2017-11-25T06:19:07.474Z,25.83
2017-11-25T06:21:35.090Z,25.80
2017-11-25T06:24:02.751Z,24.60
2017-11-25T06:26:30.476Z,26.57
2017-11-25T06:28:58.891Z,24.20
2017-11-25T06:31:26.574Z,24.90
2017-11-25T06:33:54.196Z,31.80
2017-11-25T06:36:21.857Z,29.87
2017-11-25T06:38:49.559Z,24.30
2017-11-25T06:41:17.169Z,24.37
2017-11-25T06:43:44.862Z,23.33
2017-11-25T06:46:12.475Z,24.10
2017-11-25T06:48:40.986Z,25.77
2017-11-25T06:51:08.746Z,25.40
2017-11-25T06:53:36.358Z,25.90
2017-11-25T06:56:04.203Z,22.37
2017-11-25T06:58:31.963Z,23.35
2017-11-25T07:00:59.858Z,23.83
2017-11-25T07:03:28.379Z,26.10
2017-11-25T07:05:56.022Z,23.23
2017-11-25T07:08:23.675Z,23.60
2017-11-25T07:10:54.124Z,37.80
2017-11-25T07:13:21.842Z,25.77
2017-11-25T07:15:49.782Z,28.17
2017-11-25T07:18:17.394Z,26.13
2017-11-25T07:20:45.062Z,25.93
2017-11-25T07:23:12.724Z,25.30
2017-11-25T07:25:40.414Z,23.67
2017-11-25T07:28:08.961Z,23.87
2017-11-25T07:30:36.598Z,27.03
2017-11-25T07:33:05.035Z,27.55
2017-11-25T07:35:32.708Z,28.17
2017-11-25T07:38:00.399Z,29.63
2017-11-25T07:40:28.840Z,27.93
2017-11-25T07:42:56.508Z,27.80
2017-11-25T07:45:24.192Z,24.75
2017-11-25T07:47:52.594Z,21.63
2017-11-25T07:50:21.446Z,23.50
2017-11-25T07:52:49.134Z,25.33
2017-11-25T07:55:18.499Z,22.33
2017-11-25T07:57:46.672Z,24.20
2017-11-25T08:00:14.350Z,25.00
2017-11-25T08:02:41.974Z,26.83
2017-11-25T08:05:09.638Z,26.83
2017-11-25T08:07:37.327Z,23.10
2017-11-25T08:10:05.178Z,21.93
2017-11-25T08:12:32.858Z,23.20
2017-11-25T08:15:00.535Z,25.80
2017-11-25T08:17:28.316Z,24.10
2017-11-25T08:19:55.992Z,25.77
2017-11-25T08:22:23.861Z,25.50
2017-11-25T08:24:55.641Z,24.08
2017-11-25T08:27:23.496Z,19.60
2017-11-25T08:29:51.148Z,22.27
2017-11-25T08:32:18.766Z,24.65
2017-11-25T08:34:46.476Z,22.40
2017-11-25T08:37:14.152Z,22.83
2017-11-25T08:39:41.971Z,25.23
2017-11-25T08:42:09.592Z,24.40
2017-11-25T08:44:37.503Z,24.98
2017-11-25T08:47:05.155Z,25.67
2017-11-25T08:49:32.787Z,24.23
2017-11-25T08:52:01.534Z,22.25
2017-11-25T08:54:29.279Z,20.95
2017-11-25T08:56:56.903Z,21.95
2017-11-25T08:59:24.792Z,22.87
2017-11-25T09:01:52.415Z,22.00
2017-11-25T09:04:20.291Z,21.37
2017-11-25T09:06:48.687Z,23.47
2017-11-25T09:09:16.708Z,24.07
2017-11-25T09:11:44.336Z,25.02
2017-11-25T09:14:12.162Z,23.67
2017-11-25T09:16:40.635Z,21.70
2017-11-25T09:19:08.308Z,26.80
2017-11-25T09:21:35.992Z,26.80
2017-11-25T09:24:03.659Z,23.40
2017-11-25T09:26:31.453Z,21.37
2017-11-25T09:28:59.223Z,22.07
2017-11-25T09:31:27.026Z,21.57
2017-11-25T09:33:55.408Z,21.40
2017-11-25T09:36:23.108Z,22.87
2017-11-25T09:38:50.782Z,21.90
2017-11-25T09:41:18.872Z,21.27
2017-11-25T09:43:46.528Z,22.40
2017-11-25T09:46:14.212Z,22.67
2017-11-25T09:48:42.643Z,21.20
2017-11-25T09:51:10.717Z,23.07
2017-11-25T09:53:38.690Z,18.80
2017-11-25T09:56:06.303Z,17.80
2017-11-25T09:58:34.011Z,18.10
2017-11-25T10:01:01.663Z,19.23
2017-11-25T10:03:29.379Z,18.77
2017-11-25T10:05:57.185Z,19.70
2017-11-25T10:08:24.852Z,20.47
2017-11-25T10:10:52.500Z,19.53
2017-11-25T10:13:20.123Z,19.23
2017-11-25T10:15:48.030Z,21.35
2017-11-25T10:18:15.658Z,19.00
2017-11-25T10:20:43.774Z,20.37
2017-11-25T10:23:11.394Z,19.40
2017-11-25T10:25:39.007Z,20.70
2017-11-25T10:28:06.686Z,20.77
2017-11-25T10:30:35.078Z,20.73
2017-11-25T10:33:02.735Z,21.13
2017-11-25T10:35:30.550Z,18.60
2017-11-25T10:37:58.181Z,20.40
2017-11-25T10:40:26.482Z,19.05
2017-11-25T10:42:54.778Z,18.50
2017-11-25T10:45:22.432Z,19.53
2017-11-25T10:47:50.393Z,21.07
2017-11-25T10:50:18.763Z,23.60
2017-11-25T10:52:46.445Z,22.10
2017-11-25T10:55:14.098Z,22.55
2017-11-25T10:57:41.778Z,20.92
2017-11-25T11:00:10.182Z,20.45
2017-11-25T11:02:37.806Z,20.67
2017-11-25T11:05:06.119Z,21.62
2017-11-25T11:07:33.812Z,23.17
2017-11-25T11:10:01.487Z,23.07
2017-11-25T11:12:29.165Z,17.60
2017-11-25T11:14:59.226Z,17.77
2017-11-25T11:17:26.887Z,19.45
2017-11-25T11:19:54.527Z,19.40
2017-11-25T11:22:22.950Z,18.50
2017-11-25T11:24:50.611Z,19.53
2017-11-25T11:27:18.836Z,20.10
2017-11-25T11:29:46.499Z,17.97
2017-11-25T11:32:15.490Z,20.93
2017-11-25T11:34:43.900Z,20.53
2017-11-25T11:37:12.214Z,20.57
2017-11-25T11:39:39.891Z,20.20
2017-11-25T11:42:07.526Z,22.30
2017-11-25T11:44:36.941Z,18.30
2017-11-25T11:47:04.791Z,20.03
2017-11-25T11:49:32.427Z,21.77
2017-11-25T11:52:00.108Z,22.77
2017-11-25T11:54:27.835Z,21.47
2017-11-25T11:56:55.511Z,21.40
2017-11-25T11:59:23.277Z,21.00
2017-11-25T12:01:50.923Z,19.17
2017-11-25T12:04:19.036Z,19.80
2017-11-25T12:06:46.709Z,18.70
2017-11-25T12:09:15.274Z,19.60
2017-11-25T12:11:43.118Z,17.20
2017-11-25T12:14:10.739Z,20.10
2017-11-25T12:16:38.406Z,22.40
2017-11-25T12:19:06.027Z,20.07
2017-11-25T12:21:33.648Z,19.17
2017-11-25T12:24:01.620Z,19.40
2017-11-25T12:26:29.390Z,19.98
2017-11-25T12:28:57.039Z,16.80
2017-11-25T12:31:25.047Z,17.73
2017-11-25T12:33:54.413Z,16.80
2017-11-25T12:36:22.204Z,16.47
2017-11-25T12:38:49.966Z,18.30
2017-11-25T12:41:17.809Z,17.45
2017-11-25T12:43:45.491Z,15.90
2017-11-25T12:46:13.150Z,17.93
2017-11-25T12:48:41.029Z,16.00
2017-11-25T12:51:08.775Z,15.87
2017-11-25T12:53:37.303Z,16.52
2017-11-25T12:56:05.018Z,17.15
2017-11-25T12:58:32.698Z,17.15
2017-11-25T13:01:00.491Z,15.30
2017-11-25T13:03:28.291Z,15.75
2017-11-25T13:05:55.952Z,14.80
2017-11-25T13:08:23.610Z,14.10
2017-11-25T13:10:51.231Z,13.03
2017-11-25T13:13:19.869Z,12.27
2017-11-25T13:15:47.487Z,14.43
2017-11-25T13:18:15.114Z,16.53
2017-11-25T13:20:43.552Z,16.47
2017-11-25T13:23:11.195Z,14.00
2017-11-25T13:25:38.811Z,13.50
2017-11-25T13:28:06.479Z,15.20
2017-11-25T13:30:34.907Z,16.23
2017-11-25T13:33:02.583Z,15.40
2017-11-25T13:35:30.195Z,14.98
2017-11-25T13:37:57.862Z,15.90
2017-11-25T13:40:26.195Z,15.88
2017-11-25T13:42:53.878Z,15.83
2017-11-25T13:45:21.714Z,18.77
2017-11-25T13:47:49.329Z,16.75
2017-11-25T13:50:16.960Z,16.60
2017-11-25T13:52:45.703Z,16.37
2017-11-25T13:55:13.338Z,16.80
2017-11-25T13:57:41.282Z,15.77
2017-11-25T14:00:09.215Z,15.50
2017-11-25T14:02:37.053Z,17.23
2017-11-25T14:05:04.727Z,16.37
2017-11-25T14:07:32.528Z,16.10
2017-11-25T14:10:01.348Z,14.70
2017-11-25T14:12:29.658Z,15.83
2017-11-25T14:14:57.636Z,14.63
2017-11-25T14:17:26.087Z,16.23
2017-11-25T14:19:53.851Z,17.27
2017-11-25T14:22:21.834Z,15.52
2017-11-25T14:24:49.605Z,14.77
2017-11-25T14:27:17.275Z,15.27
2017-11-25T14:29:45.523Z,16.07
2017-11-25T14:32:13.143Z,15.20
2017-11-25T14:34:41.059Z,15.47
2017-11-25T14:37:08.755Z,14.23
2017-11-25T14:39:37.162Z,15.40
2017-11-25T14:42:04.946Z,14.77
2017-11-25T14:44:32.708Z,14.25
2017-11-25T14:47:00.691Z,15.70
2017-11-25T14:49:28.370Z,15.47
2017-11-25T14:51:56.007Z,16.90
2017-11-25T14:54:24.154Z,15.50
2017-11-25T14:56:51.830Z,16.20
2017-11-25T14:59:20.697Z,15.52
2017-11-25T15:01:48.394Z,15.80
2017-11-25T15:04:16.074Z,15.77
2017-11-25T15:06:43.700Z,15.60
2017-11-25T15:09:11.363Z,15.25
2017-11-25T15:11:39.008Z,14.80
2017-11-25T15:14:06.684Z,16.27
2017-11-25T15:16:34.383Z,14.83
2017-11-25T15:19:02.132Z,14.87
2017-11-25T15:21:29.787Z,14.87
2017-11-25T15:23:57.503Z,15.50
2017-11-25T15:26:25.413Z,15.03
2017-11-25T15:28:53.100Z,14.57
2017-11-25T15:31:20.762Z,16.57
2017-11-25T15:33:49.194Z,14.23
2017-11-25T15:36:16.851Z,15.13
2017-11-25T15:38:44.572Z,15.63
2017-11-25T15:41:12.195Z,16.30
2017-11-25T15:43:39.937Z,15.03
2017-11-25T15:46:07.919Z,14.55
2017-11-25T15:48:35.687Z,15.85
2017-11-25T15:51:03.368Z,17.58
2017-11-25T15:53:31.107Z,16.87
2017-11-25T15:55:58.760Z,17.65
2017-11-25T15:58:26.626Z,19.97
2017-11-25T16:00:54.314Z,19.70
2017-11-25T16:03:22.878Z,18.67
2017-11-25T16:05:50.528Z,16.67
2017-11-25T16:08:18.722Z,18.10
2017-11-25T16:10:47.487Z,17.03
2017-11-25T16:13:15.166Z,18.77
2017-11-25T16:15:43.850Z,16.40
2017-11-25T16:18:11.543Z,18.17
2017-11-25T16:20:39.170Z,18.87
2017-11-25T16:23:06.833Z,18.35
2017-11-25T16:25:34.583Z,20.87
2017-11-25T16:28:02.231Z,18.10
2017-11-25T16:30:29.929Z,20.02
2017-11-25T16:32:57.565Z,20.10
2017-11-25T16:35:25.412Z,20.17
2017-11-25T16:37:53.127Z,21.73
2017-11-25T16:40:22.592Z,20.10
2017-11-25T16:42:50.510Z,21.07
2017-11-25T16:45:18.308Z,21.30
2017-11-25T16:47:46.070Z,21.27
2017-11-25T16:50:14.674Z,21.20
2017-11-25T16:52:42.518Z,20.15
2017-11-25T16:55:10.512Z,21.70
2017-11-25T16:57:39.076Z,33.83
2017-11-25T17:00:06.705Z,23.30
2017-11-25T17:02:34.415Z,21.77
2017-11-25T17:05:02.078Z,21.23
2017-11-25T17:07:31.236Z,23.50
2017-11-25T17:09:58.890Z,22.23
2017-11-25T17:12:26.566Z,22.58
2017-11-25T17:14:54.483Z,30.60
2017-11-25T17:20:11.499Z,33.93
2017-11-25T17:22:39.238Z,33.20
2017-11-25T17:25:07.043Z,40.40
2017-11-25T17:27:35.478Z,29.13
2017-11-25T17:30:04.211Z,26.62
2017-11-25T17:32:31.823Z,33.63
2017-11-25T17:34:59.487Z,41.43
2017-11-25T17:37:27.107Z,26.15
2017-11-25T17:39:54.834Z,25.40
2017-11-25T17:42:23.271Z,24.83
2017-11-25T17:44:51.603Z,26.48
2017-11-25T17:47:20.036Z,27.77
2017-11-25T17:49:47.699Z,26.63
2017-11-25T17:52:15.316Z,25.00
2017-11-25T17:54:43.494Z,26.93
2017-11-25T17:57:11.385Z,29.60
2017-11-25T17:59:38.998Z,25.25
2017-11-25T18:02:07.656Z,26.87
2017-11-25T18:04:35.272Z,22.47
2017-11-25T18:07:02.971Z,22.90
2017-11-25T18:09:30.591Z,20.70
2017-11-25T18:11:58.206Z,17.60
2017-11-25T18:14:26.641Z,17.20
2017-11-25T18:16:54.275Z,17.45
2017-11-25T18:19:21.942Z,18.50
2017-11-25T18:21:49.558Z,16.87
2017-11-25T18:24:17.179Z,15.15
2017-11-25T18:26:44.830Z,16.87
2017-11-25T18:29:12.529Z,14.70
2017-11-25T18:31:40.198Z,13.80
2017-11-25T18:34:08.538Z,13.77
2017-11-25T18:36:36.187Z,12.45
2017-11-25T18:39:03.922Z,12.90
2017-11-25T18:41:32.354Z,12.07
2017-11-25T18:43:59.967Z,11.98
2017-11-25T18:46:27.800Z,12.23
2017-11-25T18:48:56.554Z,12.77
2017-11-25T18:51:24.791Z,12.00
2017-11-25T18:53:53.216Z,13.17
2017-11-25T18:56:20.838Z,11.83
2017-11-25T18:58:48.494Z,11.47
2017-11-25T19:01:17.035Z,14.00
2017-11-25T19:03:48.089Z,13.68
2017-11-25T19:06:17.842Z,11.65
2017-11-25T19:08:47.638Z,11.73
2017-11-25T19:11:17.709Z,10.30
2017-11-25T19:13:47.271Z,10.27
2017-11-25T19:16:16.566Z,11.60
2017-11-25T19:18:44.182Z,11.77
2017-11-25T19:21:11.848Z,13.30
2017-11-25T19:23:40.504Z,12.53
2017-11-25T19:26:08.346Z,11.32
2017-11-25T19:28:36.003Z,11.30
2017-11-25T19:31:03.689Z,11.87
2017-11-25T19:33:31.363Z,12.23
2017-11-25T19:35:59.026Z,11.90
2017-11-25T19:38:27.888Z,10.80
2017-11-25T19:40:58.853Z,11.40
2017-11-25T19:43:26.996Z,12.52
2017-11-25T19:45:54.674Z,14.40
2017-11-25T19:48:22.286Z,14.20
2017-11-25T19:50:49.942Z,13.73
2017-11-25T19:53:17.739Z,11.38
2017-11-25T19:55:45.502Z,12.35
2017-11-25T19:58:13.654Z,12.33
2017-11-25T20:00:41.268Z,10.20
2017-11-25T20:03:08.923Z,13.73
2017-11-25T20:05:36.582Z,11.53
2017-11-25T20:08:04.636Z,11.73
2017-11-25T20:10:32.590Z,11.18
2017-11-25T20:13:00.214Z,10.52
2017-11-25T20:15:29.142Z,12.35
2017-11-25T20:17:56.905Z,10.80
2017-11-25T20:20:24.622Z,12.55
2017-11-25T20:22:52.302Z,13.98
2017-11-25T20:25:19.928Z,13.70
2017-11-25T20:27:48.884Z,13.60
2017-11-25T20:30:16.643Z,15.33
2017-11-25T20:32:44.259Z,14.00
2017-11-25T20:35:13.482Z,13.18
2017-11-25T20:37:41.554Z,13.03
2017-11-25T20:40:09.403Z,11.50
2017-11-25T20:42:37.037Z,13.30
2017-11-25T20:45:05.704Z,13.13
2017-11-25T20:47:33.341Z,12.33
2017-11-25T20:50:01.216Z,12.70
2017-11-25T20:52:28.883Z,12.45
2017-11-25T20:54:56.979Z,13.30
2017-11-25T20:57:25.512Z,13.57
2017-11-25T20:59:53.167Z,14.90
2017-11-25T21:02:23.635Z,14.70
2017-11-25T21:04:51.472Z,13.68
2017-11-25T21:07:20.543Z,13.48
2017-11-25T21:09:48.215Z,12.70
2017-11-25T21:12:17.433Z,14.63
2017-11-25T21:14:48.326Z,13.77
2017-11-25T21:17:19.294Z,14.73
2017-11-25T21:19:50.144Z,15.23
2017-11-25T21:22:20.653Z,15.60
2017-11-25T21:24:51.766Z,16.27
2017-11-25T21:27:21.753Z,15.00
2017-11-25T21:29:54.445Z,15.50
2017-11-25T21:32:24.034Z,14.23
2017-11-25T21:34:51.672Z,13.90
2017-11-25T21:37:21.007Z,13.70
2017-11-25T21:39:48.739Z,13.73
2017-11-25T21:42:16.398Z,12.82
2017-11-25T21:44:44.213Z,13.30
2017-11-25T21:47:12.101Z,14.87
2017-11-25T21:49:40.102Z,13.32
2017-11-25T21:52:08.579Z,13.68
2017-11-25T21:54:37.024Z,13.37
2017-11-25T21:57:05.259Z,13.40
2017-11-25T21:59:33.638Z,12.77
2017-11-25T22:02:03.498Z,12.23
2017-11-25T22:04:31.155Z,12.60
2017-11-25T22:06:58.810Z,13.87
2017-11-25T22:09:26.431Z,12.10
2017-11-25T22:11:54.118Z,12.17
2017-11-25T22:14:22.028Z,11.33
2017-11-25T22:16:49.646Z,11.20
2017-11-25T22:19:17.542Z,12.60
2017-11-25T22:21:45.167Z,11.27
2017-11-25T22:24:14.498Z,11.37
2017-11-25T22:26:42.154Z,9.13
2017-11-25T22:29:09.855Z,11.00
2017-11-25T22:31:38.247Z,10.40
2017-11-25T22:34:06.347Z,9.57
2017-11-25T22:36:34.119Z,10.03
2017-11-25T22:39:01.764Z,10.67
2017-11-25T22:41:29.433Z,9.97
2017-11-25T22:43:57.324Z,10.00
2017-11-25T22:46:24.997Z,10.27
2017-11-25T22:48:52.679Z,9.53
2017-11-25T22:51:21.107Z,9.23
2017-11-25T22:53:48.722Z,7.90
2017-11-25T22:56:17.141Z,9.13
2017-11-25T22:58:44.779Z,8.90
2017-11-25T23:01:12.394Z,9.87
2017-11-25T23:03:40.611Z,10.47
2017-11-25T23:06:11.176Z,9.93
2017-11-25T23:08:38.795Z,12.50
2017-11-25T23:11:06.476Z,15.43
2017-11-25T23:13:34.462Z,11.30
2017-11-25T23:16:02.314Z,8.77
2017-11-25T23:18:29.990Z,9.30
2017-11-25T23:20:57.648Z,8.53
2017-11-25T23:23:25.312Z,8.83
2017-11-25T23:25:53.061Z,8.60
2017-11-25T23:28:20.675Z,8.23
2017-11-25T23:30:48.332Z,8.40
2017-11-25T23:33:16.051Z,8.17
2017-11-25T23:35:43.727Z,7.60
2017-11-25T23:38:12.357Z,7.15
2017-11-25T23:40:40.025Z,4.60
2017-11-25T23:43:07.928Z,6.70
2017-11-25T23:45:35.604Z,7.82
2017-11-25T23:48:03.229Z,7.53
2017-11-25T23:50:30.883Z,7.18
2017-11-25T23:52:58.671Z,6.80
2017-11-25T23:55:26.330Z,7.57
2017-11-25T23:57:53.983Z,6.97
